Time;durP1;ratioP1;P1;durP2;ratioP2;P2;SDS_P1;SDS_P2;PMS_P1;PMS_P2;Temp;Humidity;BMP_temperature;BMP_pressure;BME280_temperature;BME280_humidity;BME280_pressure;Samples;Min_cycle;Max_cycle;Signal;HPM_P1;HPM_P2
2022/12/28 03:48:30;;;;;;;1.02;0.10;;;5.30;91.80;;;;;;4904586;28;87905;-70
2022/12/28 03:50:56;;;;;;;1.80;0.10;;;5.40;91.30;;;;;;4901367;28;86227;-71
2022/12/28 03:53:29;;;;;;;1.15;0.10;;;5.50;91.20;;;;;;4905040;28;86867;-72
2022/12/28 03:56:09;;;;;;;1.40;0.10;;;5.40;91.30;;;;;;4908241;28;87196;-72
2022/12/28 03:58:35;;;;;;;1.23;0.10;;;5.50;91.10;;;;;;4916119;28;86620;-71
2022/12/28 04:01:01;;;;;;;1.77;0.00;;;5.50;90.90;;;;;;4912021;28;87133;-71
2022/12/28 04:03:27;;;;;;;2.55;0.10;;;5.50;90.80;;;;;;4920617;28;86167;-72
2022/12/28 04:05:54;;;;;;;1.08;0.05;;;5.60;90.60;;;;;;4920202;28;87329;-71
2022/12/28 04:08:19;;;;;;;0.50;0.10;;;5.60;90.40;;;;;;4918708;28;87499;-70
2022/12/28 04:10:45;;;;;;;0.57;0.10;;;5.70;90.10;;;;;;4908309;28;87571;-70
2022/12/28 04:13:11;;;;;;;0.50;0.10;;;5.70;90.20;;;;;;4902435;28;86272;-70
2022/12/28 04:15:36;;;;;;;1.10;0.10;;;5.80;89.70;;;;;;4900661;28;87348;-70
2022/12/28 04:18:02;;;;;;;0.50;0.00;;;5.80;89.40;;;;;;4900397;28;86373;-70
2022/12/28 04:20:28;;;;;;;1.20;0.10;;;5.90;88.50;;;;;;4904939;28;87078;-69
2022/12/28 04:22:54;;;;;;;1.25;0.10;;;5.90;88.10;;;;;;4920335;28;86598;-69
2022/12/28 04:25:19;;;;;;;0.22;0.00;;;5.90;88.10;;;;;;4911449;28;87360;-69
2022/12/28 04:27:45;;;;;;;0.38;0.00;;;5.90;87.50;;;;;;4901644;28;86190;-69
2022/12/28 04:30:11;;;;;;;0.38;0.00;;;5.90;87.50;;;;;;4901193;28;86278;-71
2022/12/28 04:32:36;;;;;;;1.13;0.10;;;5.90;87.20;;;;;;4902056;28;87090;-71
2022/12/28 04:35:02;;;;;;;0.63;0.10;;;5.80;87.00;;;;;;4899924;28;89282;-71
2022/12/28 04:37:28;;;;;;;0.60;0.10;;;5.80;87.00;;;;;;4905990;28;87823;-71
2022/12/28 04:39:54;;;;;;;2.45;0.10;;;5.70;87.60;;;;;;4908671;28;86338;-71
2022/12/28 04:42:20;;;;;;;0.30;0.10;;;5.70;87.50;;;;;;4900587;28;86258;-70
2022/12/28 04:44:45;;;;;;;1.17;0.20;;;5.70;87.50;;;;;;4908593;28;86885;-71
2022/12/28 04:47:12;;;;;;;0.40;0.10;;;5.70;87.50;;;;;;4910024;28;87181;-70
2022/12/28 04:49:37;;;;;;;0.77;0.03;;;5.60;87.90;;;;;;4900081;28;86753;-69
2022/12/28 04:52:06;;;;;;;0.88;0.10;;;5.60;87.70;;;;;;4899973;28;86291;-69
2022/12/28 04:54:32;;;;;;;1.33;0.10;;;5.60;88.00;;;;;;4897930;28;87164;-70
2022/12/28 04:56:58;;;;;;;0.50;0.00;;;5.60;88.50;;;;;;4899709;28;86725;-70
2022/12/28 04:59:23;;;;;;;0.55;0.10;;;5.60;87.90;;;;;;4906571;28;88038;-70
2022/12/28 05:01:49;;;;;;;0.88;0.10;;;5.60;88.20;;;;;;4895341;28;86761;-69
2022/12/28 05:04:15;;;;;;;0.60;0.10;;;5.50;88.30;;;;;;4898244;28;87038;-70
2022/12/28 05:06:40;;;;;;;1.08;0.10;;;5.50;88.00;;;;;;4899546;28;86965;-70
2022/12/28 05:09:06;;;;;;;1.58;0.20;;;5.50;88.40;;;;;;4899907;28;87915;-71
2022/12/28 05:11:31;;;;;;;0.93;0.10;;;5.50;88.70;;;;;;4900540;28;88310;-70
2022/12/28 05:13:57;;;;;;;1.02;0.10;;;5.50;89.70;;;;;;4899118;28;88382;-70
2022/12/28 05:16:25;;;;;;;1.02;0.20;;;5.40;89.30;;;;;;4900978;28;86196;-70
2022/12/28 05:18:51;;;;;;;1.10;0.10;;;5.40;89.50;;;;;;4897323;28;86767;-71
2022/12/28 05:21:22;;;;;;;1.02;0.10;;;5.40;89.60;;;;;;4898841;28;87120;-70
2022/12/28 05:23:49;;;;;;;0.50;0.10;;;5.40;90.70;;;;;;4901929;28;88438;-69
2022/12/28 05:26:17;;;;;;;0.50;0.08;;;5.40;90.00;;;;;;4899585;28;87161;-69
2022/12/28 05:28:43;;;;;;;0.63;0.10;;;5.40;89.80;;;;;;4899568;28;86299;-69
2022/12/28 05:31:12;;;;;;;1.45;0.10;;;5.30;90.10;;;;;;4900144;28;86713;-70
2022/12/28 05:33:39;;;;;;;1.10;0.10;;;5.30;89.50;;;;;;4897732;28;87153;-70
2022/12/28 05:36:07;;;;;;;0.40;0.00;;;5.30;90.10;;;;;;4899857;28;86761;-70
2022/12/28 05:38:33;;;;;;;0.68;0.10;;;5.40;89.20;;;;;;4896952;28;86408;-71
2022/12/28 05:41:12;;;;;;;0.57;0.03;;;5.30;88.20;;;;;;4900898;28;85949;-71
2022/12/28 05:43:38;;;;;;;0.65;0.00;;;5.40;87.60;;;;;;4895184;28;87787;-71
2022/12/28 05:46:07;;;;;;;0.95;0.03;;;5.40;87.90;;;;;;4899650;28;87145;-71
2022/12/28 05:48:34;;;;;;;0.50;0.00;;;5.50;87.10;;;;;;4898228;28;88400;-70
2022/12/28 05:51:09;;;;;;;0.60;0.00;;;5.50;86.80;;;;;;4900813;28;86316;-70
2022/12/28 05:53:36;;;;;;;1.67;0.00;;;5.50;86.30;;;;;;4898378;28;87557;-71
2022/12/28 05:56:06;;;;;;;0.77;0.10;;;5.50;86.20;;;;;;4899960;28;87066;-70
2022/12/28 05:58:33;;;;;;;0.47;0.10;;;5.50;86.20;;;;;;4898506;28;87192;-70
2022/12/28 06:01:16;;;;;;;0.55;0.00;;;5.50;85.80;;;;;;4905379;28;86850;-70
2022/12/28 06:03:42;;;;;;;;;;;5.50;85.90;;;;;;4889508;28;88335;-70
2022/12/28 06:06:17;;;;;;;1.30;0.10;;;5.50;86.10;;;;;;4898007;28;85955;-71
2022/12/28 06:08:45;;;;;;;0.55;0.00;;;5.50;86.40;;;;;;4896249;28;86982;-71
2022/12/28 06:11:14;;;;;;;0.43;0.00;;;5.40;86.80;;;;;;4894179;28;86899;-71
2022/12/28 06:13:39;;;;;;;1.10;0.10;;;5.40;86.70;;;;;;4890428;28;88265;-70
2022/12/28 06:16:07;;;;;;;0.85;0.10;;;5.30;87.20;;;;;;4898224;28;87123;-71
2022/12/28 06:18:34;;;;;;;0.63;0.10;;;5.30;87.10;;;;;;4897531;28;86658;-70
2022/12/28 06:21:13;;;;;;;1.33;0.10;;;5.30;87.90;;;;;;4897759;28;86499;-70
2022/12/28 06:23:40;;;;;;;0.85;0.10;;;5.30;87.60;;;;;;4895840;28;87048;-70
2022/12/28 06:26:07;;;;;;;1.00;0.08;;;5.30;87.80;;;;;;4897483;28;86545;-70
2022/12/28 06:28:35;;;;;;;0.93;0.10;;;5.30;87.30;;;;;;4895112;28;86744;-70
2022/12/28 06:31:05;;;;;;;0.68;0.03;;;5.30;87.40;;;;;;4898695;28;85614;-71
2022/12/28 06:33:31;;;;;;;0.60;0.10;;;5.20;87.30;;;;;;4897239;28;87285;-71
2022/12/28 06:35:57;;;;;;;1.70;0.10;;;5.20;86.90;;;;;;4899791;28;87483;-71
2022/12/28 06:38:23;;;;;;;1.27;0.10;;;5.30;86.80;;;;;;4894861;28;87977;-71
2022/12/28 06:40:49;;;;;;;1.88;0.10;;;5.30;86.90;;;;;;4897240;28;86961;-71
2022/12/28 06:43:15;;;;;;;1.83;0.00;;;5.30;86.70;;;;;;4881089;28;87810;-71
2022/12/28 06:45:40;;;;;;;0.63;0.10;;;5.20;86.50;;;;;;4894086;28;86316;-72
2022/12/28 06:48:06;;;;;;;0.82;0.10;;;5.30;86.50;;;;;;4886280;28;87154;-70
2022/12/28 06:50:32;;;;;;;0.77;0.10;;;5.30;86.60;;;;;;4898286;28;86891;-69
2022/12/28 06:52:57;;;;;;;1.75;0.10;;;5.30;86.70;;;;;;4898045;28;87572;-71
2022/12/28 06:55:23;;;;;;;0.73;0.10;;;5.30;87.20;;;;;;4907508;28;86211;-70
2022/12/28 06:57:49;;;;;;;0.90;0.10;;;5.20;87.10;;;;;;4896346;28;86735;-70
2022/12/28 07:00:15;;;;;;;1.15;0.10;;;5.20;87.30;;;;;;4898899;28;86918;-71
2022/12/28 07:02:41;;;;;;;0.70;0.10;;;5.20;88.10;;;;;;4890814;28;89422;-70
2022/12/28 07:05:07;;;;;;;2.05;0.10;;;5.20;87.50;;;;;;4895792;28;87138;-71
2022/12/28 07:07:32;;;;;;;0.28;0.03;;;5.20;87.50;;;;;;4897405;28;86865;-71
2022/12/28 07:09:58;;;;;;;1.15;0.10;;;5.30;86.70;;;;;;4894777;28;86629;-71
2022/12/28 07:12:24;;;;;;;0.47;0.03;;;5.40;86.30;;;;;;4893379;28;87210;-71
2022/12/28 07:14:49;;;;;;;1.48;0.20;;;5.50;84.80;;;;;;4891865;28;88651;-70
2022/12/28 07:17:15;;;;;;;2.38;0.45;;;5.50;85.50;;;;;;4894388;28;86788;-70
2022/12/28 07:19:41;;;;;;;1.42;0.22;;;5.60;85.10;;;;;;4896603;28;87343;-72
2022/12/28 07:22:06;;;;;;;2.00;0.10;;;5.60;84.70;;;;;;4899987;28;87212;-72
2022/12/28 07:24:32;;;;;;;0.90;0.10;;;5.60;84.30;;;;;;4893671;28;87255;-70
2022/12/28 07:26:57;;;;;;;0.73;0.10;;;5.60;84.80;;;;;;4894841;28;87508;-71
2022/12/28 07:29:23;;;;;;;1.60;0.00;;;5.60;84.50;;;;;;4895578;28;87147;-71
2022/12/28 07:31:49;;;;;;;1.80;0.10;;;5.70;84.60;;;;;;4895494;28;86562;-71
2022/12/28 07:34:14;;;;;;;0.90;0.10;;;5.70;84.10;;;;;;4895232;28;87524;-70
2022/12/28 07:36:41;;;;;;;2.95;0.10;;;5.80;84.60;;;;;;4890785;28;86485;-71
2022/12/28 07:39:06;;;;;;;0.93;0.10;;;5.80;83.50;;;;;;4893729;28;86310;-71
2022/12/28 07:41:33;;;;;;;0.40;0.08;;;5.90;82.20;;;;;;4895389;28;87181;-71
2022/12/28 07:43:59;;;;;;;0.40;0.00;;;6.00;81.80;;;;;;4894980;28;86218;-71
2022/12/28 07:46:31;;;;;;;1.00;0.10;;;6.10;80.60;;;;;;4893015;28;86388;-71
2022/12/28 07:48:56;;;;;;;0.70;0.00;;;6.40;80.00;;;;;;4895613;28;86804;-71
2022/12/28 07:51:26;;;;;;;0.40;0.00;;;7.10;77.70;;;;;;4897922;28;88200;-71
2022/12/28 07:53:53;;;;;;;1.75;0.00;;;7.40;74.90;;;;;;4898366;28;87127;-70
2022/12/28 07:56:20;;;;;;;0.70;0.03;;;7.30;74.70;;;;;;4898702;28;86325;-71
2022/12/28 07:58:56;;;;;;;0.73;0.00;;;7.60;74.50;;;;;;4899099;28;86909;-72
2022/12/28 08:01:24;;;;;;;0.43;0.00;;;7.70;72.20;;;;;;4898822;28;87085;-72
2022/12/28 08:03:56;;;;;;;1.60;0.00;;;7.80;72.70;;;;;;4898160;28;86243;-71
2022/12/28 08:06:23;;;;;;;0.43;0.10;;;7.90;71.00;;;;;;4895616;28;87145;-71
2022/12/28 08:08:51;;;;;;;0.52;0.00;;;7.70;71.40;;;;;;4899541;28;85532;-69
2022/12/28 08:11:20;;;;;;;0.47;0.08;;;7.50;72.30;;;;;;4898306;28;88167;-71
2022/12/28 08:13:47;;;;;;;1.00;0.10;;;7.30;74.50;;;;;;4898227;28;86808;-69
2022/12/28 08:16:17;;;;;;;0.68;0.10;;;7.30;74.80;;;;;;4896099;28;87740;-71
2022/12/28 08:18:43;;;;;;;1.25;0.25;;;7.20;75.30;;;;;;4898432;28;86892;-71
2022/12/28 08:21:20;;;;;;;1.15;0.20;;;7.10;76.00;;;;;;4896607;28;87202;-71
2022/12/28 08:23:46;;;;;;;1.38;0.20;;;7.00;76.20;;;;;;4897642;28;86928;-71
2022/12/28 08:26:16;;;;;;;1.23;0.20;;;6.90;77.80;;;;;;4898107;28;87211;-71
2022/12/28 08:28:44;;;;;;;2.50;0.47;;;6.90;78.10;;;;;;4896276;28;87244;-71
2022/12/28 08:31:15;;;;;;;1.50;0.30;;;7.00;78.50;;;;;;4898252;28;86596;-70
2022/12/28 08:33:41;;;;;;;1.33;0.20;;;7.70;76.50;;;;;;4899135;28;86953;-72
2022/12/28 08:36:08;;;;;;;1.88;0.20;;;8.60;74.00;;;;;;4897352;28;86780;-72
2022/12/28 08:38:34;;;;;;;1.52;0.30;;;9.60;70.70;;;;;;4898018;28;86940;-71
2022/12/28 08:41:02;;;;;;;1.25;0.30;;;10.20;68.50;;;;;;4895303;28;87857;-71
2022/12/28 08:43:29;;;;;;;1.80;0.50;;;10.50;67.40;;;;;;4896511;28;87779;-72
2022/12/28 08:46:07;;;;;;;1.58;0.30;;;11.00;66.00;;;;;;4898295;28;86975;-72
2022/12/28 08:48:33;;;;;;;2.42;0.40;;;11.10;65.10;;;;;;4897522;28;86376;-71
2022/12/28 08:51:05;;;;;;;1.80;0.25;;;10.90;65.30;;;;;;4895814;28;87023;-71
2022/12/28 08:53:32;;;;;;;1.92;0.50;;;10.70;65.20;;;;;;4899764;28;86939;-71
2022/12/28 08:56:11;;;;;;;3.38;0.32;;;10.20;66.60;;;;;;4895826;28;86420;-71
2022/12/28 08:58:41;;;;;;;1.38;0.20;;;9.80;68.30;;;;;;4894536;28;86005;-71
2022/12/28 09:01:11;;;;;;;2.30;0.10;;;9.60;67.90;;;;;;4890945;28;87186;-72
2022/12/28 09:03:39;;;;;;;1.50;0.10;;;9.40;67.90;;;;;;4890216;28;87984;-71
2022/12/28 09:06:06;;;;;;;1.02;0.20;;;9.30;67.70;;;;;;4891376;28;87635;-72
2022/12/28 09:08:32;;;;;;;0.55;0.10;;;9.30;67.90;;;;;;4892157;28;86742;-72
2022/12/28 09:11:03;;;;;;;1.70;0.10;;;9.30;66.90;;;;;;4892287;28;87766;-72
2022/12/28 09:13:29;;;;;;;0.50;0.10;;;9.30;67.30;;;;;;4894944;28;87274;-72
2022/12/28 09:16:15;;;;;;;0.82;0.00;;;9.40;66.10;;;;;;4895299;28;86831;-72
2022/12/28 09:18:42;;;;;;;0.95;0.10;;;9.40;65.80;;;;;;4893925;28;86749;-72
2022/12/28 09:21:13;;;;;;;6.38;0.28;;;9.30;65.30;;;;;;4896449;28;87200;-71
2022/12/28 09:23:40;;;;;;;0.70;0.10;;;9.30;65.70;;;;;;4894022;28;86935;-72
2022/12/28 09:26:10;;;;;;;0.57;0.10;;;9.40;66.00;;;;;;4895679;28;86271;-72
2022/12/28 09:28:36;;;;;;;0.40;0.10;;;9.40;65.30;;;;;;4887376;28;86918;-72
2022/12/28 09:31:06;;;;;;;0.90;0.10;;;9.30;64.40;;;;;;4895504;28;87617;-72
2022/12/28 09:36:18;;;;;;;1.70;0.13;;;9.20;64.60;;;;;;4895217;28;88005;-72
2022/12/28 09:38:47;;;;;;;0.50;0.10;;;9.20;64.90;;;;;;4896602;28;86693;-72
2022/12/28 09:41:34;;;;;;;1.48;0.10;;;9.20;64.50;;;;;;4895995;28;86892;-72
2022/12/28 09:44:30;;;;;;;0.70;0.10;;;9.20;64.90;;;;;;4895823;28;87143;-72
2022/12/28 09:46:59;;;;;;;0.77;0.10;;;9.40;63.60;;;;;;4893596;28;86988;-72
2022/12/28 09:49:53;;;;;;;0.60;0.10;;;9.40;62.50;;;;;;4892431;28;85727;-72
2022/12/28 09:52:30;;;;;;;2.55;0.15;;;9.70;62.10;;;;;;4871178;28;87273;-73
2022/12/28 09:55:06;;;;;;;1.45;0.15;;;10.30;61.90;;;;;;4893943;28;87199;-72
2022/12/28 09:57:37;;;;;;;0.73;0.10;;;10.90;60.20;;;;;;4894382;28;87911;-73
2022/12/28 10:00:06;;;;;;;1.35;0.10;;;10.50;60.40;;;;;;4894615;28;86829;-72
2022/12/28 10:02:35;;;;;;;1.13;0.10;;;10.40;60.30;;;;;;4891120;28;88999;-72
2022/12/28 10:05:02;;;;;;;1.65;0.10;;;10.60;60.20;;;;;;4892590;28;86592;-73
2022/12/28 10:07:28;;;;;;;0.75;0.10;;;10.60;61.20;;;;;;4894674;28;86928;-73
2022/12/28 10:09:54;;;;;;;1.10;0.10;;;10.90;61.40;;;;;;4896143;28;86650;-73
2022/12/28 10:12:23;;;;;;;1.50;0.10;;;11.10;59.30;;;;;;4892319;28;87349;-73
2022/12/28 10:14:49;;;;;;;1.25;0.10;;;11.50;59.20;;;;;;4896102;28;86902;-73
2022/12/28 10:17:18;;;;;;;1.25;0.10;;;11.80;59.70;;;;;;4895343;28;86752;-73
2022/12/28 10:19:46;;;;;;;2.53;0.20;;;11.30;58.30;;;;;;4895432;28;86326;-73
2022/12/28 10:22:15;;;;;;;0.50;0.10;;;10.90;59.00;;;;;;4896204;28;87657;-73
2022/12/28 10:24:42;;;;;;;4.88;0.30;;;10.50;61.20;;;;;;4895307;28;87771;-73
2022/12/28 10:27:18;;;;;;;0.93;0.20;;;10.20;61.90;;;;;;4895012;28;86826;-73
2022/12/28 10:29:44;;;;;;;3.03;0.20;;;9.80;62.90;;;;;;4894453;28;86761;-73
2022/12/28 10:32:11;;;;;;;1.55;0.20;;;9.70;64.80;;;;;;4896638;28;87006;-73
2022/12/28 10:35:04;;;;;;;1.25;0.20;;;9.80;65.60;;;;;;4896371;28;86952;-73
2022/12/28 10:37:33;;;;;;;2.35;0.20;;;9.90;64.30;;;;;;4895083;28;86776;-73
2022/12/28 10:40:02;;;;;;;1.45;0.20;;;9.90;65.70;;;;;;4894019;28;86430;-73
2022/12/28 10:42:34;;;;;;;1.30;0.13;;;10.10;66.10;;;;;;4895116;28;87172;-72
2022/12/28 10:45:13;;;;;;;0.70;0.20;;;10.00;64.50;;;;;;4895428;28;87849;-73
2022/12/28 10:47:48;;;;;;;0.63;0.10;;;9.80;63.90;;;;;;4891365;28;88714;-73
2022/12/28 10:50:46;;;;;;;0.65;0.10;;;9.70;64.50;;;;;;4891460;28;87244;-73
2022/12/28 10:53:23;;;;;;;1.25;0.20;;;9.50;64.80;;;;;;4871710;28;88991;-73
2022/12/28 10:55:59;;;;;;;;;;;9.50;64.40;;;;;;4895055;28;86252;-72
2022/12/28 10:58:26;;;;;;;2.28;0.10;;;9.40;65.20;;;;;;4890723;28;86226;-73
2022/12/28 11:01:06;;;;;;;0.73;0.10;;;9.40;64.50;;;;;;4894018;28;86902;-73
2022/12/28 11:03:37;;;;;;;1.40;0.10;;;9.50;65.00;;;;;;4894824;28;87293;-71
2022/12/28 11:06:19;;;;;;;0.60;0.20;;;9.60;63.90;;;;;;4897413;28;86940;-72
2022/12/28 11:09:15;;;;;;;0.82;0.10;;;9.50;64.30;;;;;;4897905;28;87248;-72
2022/12/28 11:11:43;;;;;;;1.05;0.20;;;9.50;65.40;;;;;;4894850;28;86608;-72
2022/12/28 11:14:47;;;;;;;2.92;0.20;;;9.60;66.00;;;;;;4894323;28;88328;-71
2022/12/28 11:17:16;;;;;;;0.80;0.10;;;9.70;65.90;;;;;;4807686;29;87851;-71
2022/12/28 11:19:42;;;;;;;2.88;0.35;;;9.80;66.30;;;;;;4808821;29;86590;-71
2022/12/28 11:22:11;;;;;;;1.95;0.10;;;9.80;65.40;;;;;;4851907;28;86368;-72
2022/12/28 11:24:39;;;;;;;1.17;0.20;;;9.80;66.10;;;;;;4891486;28;87358;-71
2022/12/28 11:27:05;;;;;;;0.95;0.10;;;9.70;65.90;;;;;;4892209;28;87341;-71
2022/12/28 11:29:31;;;;;;;0.98;0.10;;;9.60;66.20;;;;;;4899697;28;86359;-71
2022/12/28 11:31:57;;;;;;;0.90;0.10;;;9.60;66.00;;;;;;4894334;28;89148;-72
2022/12/28 11:34:26;;;;;;;2.40;0.28;;;9.50;66.90;;;;;;4897410;28;87010;-71
2022/12/28 11:36:52;;;;;;;1.17;0.20;;;9.60;67.40;;;;;;4897548;28;87346;-71
2022/12/28 11:39:26;;;;;;;2.55;0.20;;;9.60;67.40;;;;;;4898738;28;87340;-72
2022/12/28 11:42:00;;;;;;;1.25;0.30;;;9.70;66.70;;;;;;4894033;28;86969;-71
2022/12/28 11:44:29;;;;;;;1.30;0.20;;;9.70;66.60;;;;;;4896032;28;87308;-71
2022/12/28 11:47:14;;;;;;;1.13;0.20;;;9.70;66.60;;;;;;4894753;28;87095;-71
2022/12/28 11:49:40;;;;;;;1.55;0.20;;;9.80;66.70;;;;;;4895230;28;87565;-71
2022/12/28 11:52:15;;;;;;;1.00;0.10;;;9.90;66.10;;;;;;4894617;28;87067;-71
2022/12/28 11:55:01;;;;;;;2.75;0.20;;;10.00;64.80;;;;;;4896744;28;87165;-74
2022/12/28 11:57:43;;;;;;;1.58;0.20;;;10.00;65.00;;;;;;4894414;28;86509;-73
2022/12/28 12:00:38;;;;;;;1.10;0.20;;;10.10;66.30;;;;;;4892795;28;86906;-72
2022/12/28 12:03:03;;;;;;;1.70;0.22;;;10.10;65.50;;;;;;4895975;28;87740;-75
2022/12/28 12:05:35;;;;;;;1.90;0.20;;;10.20;66.50;;;;;;4898291;28;88991;-76
2022/12/28 12:08:11;;;;;;;1.33;0.20;;;10.10;66.60;;;;;;4898727;28;87393;-74
2022/12/28 12:10:38;;;;;;;3.33;0.28;;;9.90;65.70;;;;;;4898829;28;86392;-73
2022/12/28 12:13:26;;;;;;;1.48;0.30;;;9.80;67.30;;;;;;4907683;28;86842;-74
2022/12/28 12:15:57;;;;;;;1.33;0.30;;;9.80;67.50;;;;;;4885992;28;87229;-72
2022/12/28 12:18:26;;;;;;;5.05;0.50;;;9.70;67.10;;;;;;4897124;28;86496;-72
2022/12/28 12:21:08;;;;;;;1.48;0.30;;;9.70;68.60;;;;;;4891112;28;87523;-72
2022/12/28 12:24:03;;;;;;;1.55;0.30;;;9.60;68.40;;;;;;4891938;28;85874;-72
2022/12/28 12:26:45;;;;;;;1.40;0.30;;;9.60;68.30;;;;;;4891535;28;88274;-71
2022/12/28 12:29:17;;;;;;;1.90;0.28;;;9.60;68.50;;;;;;4892786;28;89401;-72
2022/12/28 12:31:47;;;;;;;1.55;0.20;;;9.60;68.90;;;;;;4890378;28;87884;-72
2022/12/28 12:34:43;;;;;;;2.47;0.30;;;9.70;68.00;;;;;;4893264;28;87115;-72
2022/12/28 12:37:36;;;;;;;2.00;0.30;;;9.70;67.90;;;;;;4894245;28;86872;-72
2022/12/28 12:40:28;;;;;;;2.63;0.30;;;9.70;68.90;;;;;;4896226;28;86654;-72
2022/12/28 12:43:08;;;;;;;1.77;0.40;;;9.70;68.60;;;;;;4897673;28;87021;-72
2022/12/28 12:46:19;;;;;;;1.92;0.40;;;9.80;68.50;;;;;;4901409;28;87599;-72
2022/12/28 12:49:02;;;;;;;2.42;0.20;;;9.80;68.20;;;;;;4869111;28;86629;-72
2022/12/28 12:52:06;;;;;;;2.50;0.32;;;9.90;69.00;;;;;;4898545;28;87147;-72
2022/12/28 12:54:51;;;;;;;2.85;0.50;;;9.90;68.20;;;;;;4899649;28;86347;-72
2022/12/28 12:57:29;;;;;;;3.33;0.50;;;10.00;68.30;;;;;;4899958;28;86858;-72
2022/12/28 13:00:03;;;;;;;1.33;0.30;;;10.10;67.20;;;;;;4897531;28;87596;-72
2022/12/28 13:02:51;;;;;;;1.75;0.30;;;10.10;68.10;;;;;;4898953;28;87841;-72
2022/12/28 13:05:21;;;;;;;4.53;0.50;;;10.20;67.90;;;;;;4899861;28;86357;-72
2022/12/28 13:07:48;;;;;;;3.08;0.50;;;10.20;67.70;;;;;;4898632;28;87174;-72
2022/12/28 13:10:25;;;;;;;1.83;0.30;;;10.30;68.10;;;;;;4898077;28;87175;-72
2022/12/28 13:12:56;;;;;;;1.60;0.40;;;10.30;68.10;;;;;;4897814;28;86385;-72
2022/12/28 13:15:21;;;;;;;5.25;1.88;;;10.30;67.50;;;;;;4899545;28;86729;-72
2022/12/28 13:18:02;;;;;;;2.83;0.85;;;10.30;67.60;;;;;;4899615;28;86104;-72
2022/12/28 13:20:28;;;;;;;3.95;1.30;;;10.30;68.10;;;;;;4897930;28;87274;-72
2022/12/28 13:22:55;;;;;;;1.45;0.40;;;10.20;67.60;;;;;;4899112;28;88032;-72
2022/12/28 13:25:32;;;;;;;2.88;1.23;;;10.20;67.80;;;;;;4899041;28;87868;-72
2022/12/28 13:28:00;;;;;;;5.53;0.45;;;10.20;67.50;;;;;;4898116;28;86772;-72
2022/12/28 13:30:27;;;;;;;2.00;0.40;;;10.10;68.30;;;;;;4864413;28;87246;-72
2022/12/28 13:32:56;;;;;;;2.88;0.50;;;10.20;68.40;;;;;;4863437;28;87096;-71
2022/12/28 13:35:30;;;;;;;2.63;0.70;;;10.20;68.40;;;;;;4865189;28;87303;-71
2022/12/28 13:37:58;;;;;;;1.88;0.50;;;10.10;67.50;;;;;;4862856;28;88129;-72
2022/12/28 13:40:25;;;;;;;1.45;0.30;;;10.00;67.60;;;;;;4864678;28;87887;-72
2022/12/28 13:43:01;;;;;;;2.15;0.30;;;9.90;67.70;;;;;;4865054;28;87524;-72
2022/12/28 13:45:27;;;;;;;4.65;0.60;;;9.90;67.70;;;;;;4864763;28;87621;-72
2022/12/28 13:47:54;;;;;;;5.45;0.50;;;9.90;68.30;;;;;;4863995;28;87075;-72
2022/12/28 13:50:25;;;;;;;1.75;0.50;;;9.90;68.50;;;;;;4863580;28;88137;-72
2022/12/28 13:53:08;;;;;;;2.15;0.40;;;9.90;68.50;;;;;;4864139;28;88402;-72
2022/12/28 13:55:33;;;;;;;5.22;0.40;;;9.80;69.00;;;;;;4865274;28;87186;-71
2022/12/28 13:58:04;;;;;;;4.47;0.57;;;9.90;68.20;;;;;;4864557;28;86988;-71
2022/12/28 14:00:32;;;;;;;2.03;0.30;;;9.90;69.10;;;;;;4863116;28;87926;-72
2022/12/28 14:02:58;;;;;;;1.80;0.45;;;9.80;68.60;;;;;;4864661;28;87130;-72
2022/12/28 14:05:28;;;;;;;2.08;0.30;;;9.80;69.40;;;;;;4864329;28;86400;-72
2022/12/28 14:07:55;;;;;;;4.13;0.30;;;9.70;69.70;;;;;;4865604;28;86286;-71
2022/12/28 14:10:21;;;;;;;1.45;0.30;;;9.70;69.40;;;;;;4863781;28;87445;-72
2022/12/28 14:12:48;;;;;;;1.70;0.52;;;9.70;69.40;;;;;;4865272;28;87443;-72
2022/12/28 14:15:15;;;;;;;1.52;0.40;;;9.70;70.10;;;;;;4863913;28;88032;-72
2022/12/28 14:17:42;;;;;;;2.75;0.50;;;9.60;70.20;;;;;;4864242;28;87356;-72
2022/12/28 14:20:09;;;;;;;2.22;0.40;;;9.50;70.20;;;;;;4864140;28;87231;-71
2022/12/28 14:22:37;;;;;;;2.40;0.65;;;9.50;70.40;;;;;;4864179;28;87581;-72
2022/12/28 14:25:11;;;;;;;6.30;0.90;;;9.50;70.60;;;;;;4864549;28;87312;-71
2022/12/28 14:27:39;;;;;;;3.67;0.80;;;9.40;71.20;;;;;;4864653;28;87554;-71
2022/12/28 14:30:18;;;;;;;3.28;0.60;;;9.40;70.90;;;;;;4861869;28;89421;-72
2022/12/28 14:32:44;;;;;;;4.00;0.70;;;9.40;70.70;;;;;;4863953;28;88476;-72
2022/12/28 14:35:28;;;;;;;2.50;0.60;;;9.40;71.40;;;;;;4864646;28;87081;-71
2022/12/28 14:37:59;;;;;;;5.28;2.22;;;9.40;72.20;;;;;;4864295;28;86926;-71
2022/12/28 14:40:35;;;;;;;3.33;1.10;;;9.30;72.30;;;;;;4862714;28;88292;-71
2022/12/28 14:43:09;;;;;;;4.75;1.77;;;9.30;72.50;;;;;;4863744;28;87793;-72
2022/12/28 14:45:40;;;;;;;1.65;0.38;;;9.20;72.70;;;;;;4864561;28;86861;-72
2022/12/28 14:48:34;;;;;;;3.53;0.80;;;9.10;72.90;;;;;;4863433;28;87349;-72
2022/12/28 14:50:59;;;;;;;2.75;0.60;;;9.10;74.50;;;;;;4863245;28;87335;-71
2022/12/28 14:53:25;;;;;;;17.52;5.63;;;9.00;74.70;;;;;;4863767;28;87552;-72
2022/12/28 14:56:06;;;;;;;6.40;1.05;;;9.00;75.50;;;;;;4863640;28;87103;-71
2022/12/28 14:58:50;;;;;;;10.23;2.80;;;8.90;75.80;;;;;;4864573;28;86102;-72
2022/12/28 15:01:17;;;;;;;7.47;2.42;;;8.80;76.50;;;;;;4856366;28;86982;-71
2022/12/28 15:03:52;;;;;;;16.35;6.70;;;8.80;76.70;;;;;;4863457;28;87034;-71
2022/12/28 15:06:19;;;;;;;12.00;4.20;;;8.80;75.90;;;;;;4863376;28;89155;-71
2022/12/28 15:08:53;;;;;;;4.07;1.27;;;8.70;76.00;;;;;;4862816;28;87035;-71
2022/12/28 15:11:20;;;;;;;21.75;6.65;;;8.70;74.10;;;;;;4862920;28;87156;-71
2022/12/28 15:13:47;;;;;;;7.05;3.00;;;8.70;74.40;;;;;;4863116;28;88128;-71
2022/12/28 15:16:13;;;;;;;8.18;1.42;;;8.70;74.50;;;;;;4864400;28;86846;-71
2022/12/28 15:18:46;;;;;;;2.90;0.73;;;8.60;74.60;;;;;;4864147;28;86995;-71
2022/12/28 15:21:18;;;;;;;3.85;0.70;;;8.60;74.90;;;;;;4862718;28;88027;-71
2022/12/28 15:23:51;;;;;;;3.88;0.90;;;8.60;74.80;;;;;;4864312;28;87200;-71
2022/12/28 15:26:17;;;;;;;7.90;1.60;;;8.60;74.90;;;;;;4863655;28;87251;-71
2022/12/28 15:28:43;;;;;;;4.57;1.00;;;8.50;75.20;;;;;;4864381;28;87146;-71
2022/12/28 15:31:12;;;;;;;3.17;0.50;;;8.50;75.50;;;;;;4861986;28;88001;-71
2022/12/28 15:33:38;;;;;;;2.10;0.55;;;8.40;74.40;;;;;;4863389;28;87152;-71
2022/12/28 15:36:12;;;;;;;2.30;0.55;;;8.40;74.20;;;;;;4863124;28;87186;-71
2022/12/28 15:38:38;;;;;;;2.72;1.00;;;8.30;74.70;;;;;;4863327;28;87089;-71
2022/12/28 15:41:44;;;;;;;2.88;0.68;;;8.20;74.30;;;;;;4862566;28;87136;-71
2022/12/28 15:43:49;;;;;;;2.80;0.60;;;8.20;73.80;;;;;;4863121;28;87791;-71
2022/12/28 15:46:15;;;;;;;2.35;0.50;;;8.10;74.60;;;;;;4862038;28;86995;-71
2022/12/28 15:48:41;;;;;;;2.72;0.60;;;8.10;74.00;;;;;;4864158;28;86450;-71
2022/12/28 15:51:06;;;;;;;3.55;0.60;;;8.00;73.30;;;;;;4862312;28;87810;-71
2022/12/28 15:53:32;;;;;;;2.58;0.65;;;8.00;73.60;;;;;;4863123;28;88023;-71
2022/12/28 15:56:01;;;;;;;3.42;0.63;;;8.00;74.40;;;;;;4863728;28;87827;-71
2022/12/28 15:58:27;;;;;;;2.97;0.50;;;8.00;73.70;;;;;;4863365;28;86907;-71
2022/12/28 16:00:53;;;;;;;2.08;0.45;;;7.90;73.60;;;;;;4858368;28;87258;-71
2022/12/28 16:03:19;;;;;;;1.95;0.40;;;7.90;73.10;;;;;;4855175;28;86912;-71
2022/12/28 16:05:44;;;;;;;2.20;0.40;;;7.90;72.60;;;;;;4862952;28;86827;-71
2022/12/28 16:08:10;;;;;;;4.03;0.47;;;7.90;72.70;;;;;;4865833;28;87142;-71
2022/12/28 16:10:36;;;;;;;2.20;0.40;;;7.90;72.50;;;;;;4865209;28;87565;-71
2022/12/28 16:13:01;;;;;;;2.97;0.70;;;7.90;72.30;;;;;;4866575;28;86292;-71
2022/12/28 16:15:27;;;;;;;4.35;0.80;;;7.90;71.80;;;;;;4865985;28;86925;-71
2022/12/28 16:17:53;;;;;;;4.88;1.00;;;7.80;72.30;;;;;;4866195;28;87843;-71
2022/12/28 16:20:19;;;;;;;6.32;1.45;;;7.80;72.60;;;;;;4865508;28;88056;-71
2022/12/28 16:22:45;;;;;;;6.03;1.77;;;7.70;73.90;;;;;;4860917;28;88698;-71
2022/12/28 16:25:11;;;;;;;7.07;1.92;;;7.70;75.60;;;;;;4861651;28;86994;-71
2022/12/28 16:27:37;;;;;;;5.63;1.50;;;7.60;76.70;;;;;;4860124;28;88834;-71
2022/12/28 16:30:04;;;;;;;4.32;1.25;;;7.50;75.40;;;;;;4860754;28;87100;-71
2022/12/28 16:32:30;;;;;;;6.65;1.77;;;7.50;75.30;;;;;;4861631;28;88116;-71
2022/12/28 16:34:56;;;;;;;7.95;2.30;;;7.40;75.80;;;;;;4864557;28;87014;-71
2022/12/28 16:37:21;;;;;;;6.03;1.67;;;7.40;76.40;;;;;;4864590;28;86183;-70
2022/12/28 16:39:47;;;;;;;5.47;1.70;;;7.40;77.40;;;;;;4863615;28;87632;-70
2022/12/28 16:42:13;;;;;;;7.55;1.70;;;7.30;77.80;;;;;;4862507;28;87379;-71
2022/12/28 16:44:39;;;;;;;9.13;2.20;;;7.20;77.90;;;;;;4855926;28;88293;-71
2022/12/28 16:47:05;;;;;;;4.50;1.52;;;7.20;78.00;;;;;;4863261;28;86960;-71
2022/12/28 16:49:31;;;;;;;6.93;1.80;;;7.10;78.20;;;;;;4862862;28;86364;-71
2022/12/28 16:51:58;;;;;;;5.18;1.88;;;7.10;78.40;;;;;;4862326;28;86972;-70
2022/12/28 16:54:25;;;;;;;8.75;1.85;;;7.00;79.30;;;;;;4862073;28;87011;-71
2022/12/28 16:56:52;;;;;;;5.57;1.98;;;6.90;80.40;;;;;;4863666;28;87110;-71
2022/12/28 16:59:23;;;;;;;8.13;2.00;;;6.80;81.00;;;;;;4855135;28;88410;-71
2022/12/28 17:01:50;;;;;;;5.00;1.92;;;6.80;81.40;;;;;;4864078;28;87064;-71